createdAt,value
2022-11-12T00:00:59.466Z,73.43
2022-11-12T00:03:27.256Z,73.77
2022-11-12T00:05:55.208Z,73.97
2022-11-12T00:08:23.375Z,74.06
2022-11-12T00:10:51.233Z,73.91
2022-11-12T00:13:18.977Z,74.25
2022-11-12T00:15:47.870Z,74.42
2022-11-12T00:18:16.838Z,74.40
2022-11-12T00:20:45.173Z,74.63
2022-11-12T00:23:12.818Z,74.71
2022-11-12T00:25:40.404Z,74.81
2022-11-12T00:28:09.963Z,74.68
2022-11-12T00:30:39.679Z,74.54
2022-11-12T00:33:07.752Z,75.02
2022-11-12T00:35:37.015Z,74.50
2022-11-12T00:38:04.697Z,74.63
2022-11-12T00:40:32.320Z,74.60
2022-11-12T00:42:59.953Z,74.15
2022-11-12T00:45:27.537Z,74.28
2022-11-12T00:47:56.780Z,74.07
2022-11-12T00:50:24.882Z,74.08
2022-11-12T00:52:54.821Z,74.40
2022-11-12T00:55:22.709Z,73.88
2022-11-12T00:57:50.415Z,73.78
2022-11-12T01:00:20.296Z,74.14
2022-11-12T01:02:51.330Z,74.08
2022-11-12T01:05:20.097Z,74.11
2022-11-12T01:07:53.158Z,74.13
2022-11-12T01:10:24.692Z,74.10
2022-11-12T01:12:52.319Z,74.05
2022-11-12T01:15:20.036Z,74.08
2022-11-12T01:17:47.684Z,74.33
2022-11-12T01:20:15.796Z,74.18
2022-11-12T01:22:43.387Z,74.16
2022-11-12T01:25:11.032Z,73.57
2022-11-12T01:27:40.006Z,73.77
2022-11-12T01:30:08.758Z,73.38
2022-11-12T01:32:37.713Z,72.82
2022-11-12T01:35:05.895Z,72.49
2022-11-12T01:37:33.459Z,72.17
2022-11-12T01:40:01.025Z,72.04
2022-11-12T01:42:31.103Z,71.53
2022-11-12T01:45:00.016Z,71.48
2022-11-12T01:47:31.827Z,71.57
2022-11-12T01:50:02.195Z,71.71
2022-11-12T01:52:34.162Z,72.23
2022-11-12T01:55:06.069Z,72.36
2022-11-12T01:57:41.263Z,72.52
2022-11-12T02:00:13.538Z,72.63
2022-11-12T02:02:41.881Z,72.47
2022-11-12T02:05:11.660Z,72.73
2022-11-12T02:07:42.006Z,72.75
2022-11-12T02:10:10.986Z,72.76
2022-11-12T02:12:56.768Z,71.66
2022-11-12T02:15:26.561Z,71.51
2022-11-12T02:17:54.310Z,71.38
2022-11-12T02:20:22.125Z,71.30
2022-11-12T02:22:51.167Z,70.40
2022-11-12T02:25:20.687Z,70.61
2022-11-12T02:27:51.811Z,70.81
2022-11-12T02:30:20.105Z,70.86
2022-11-12T02:32:47.646Z,71.20
2022-11-12T02:35:15.413Z,71.31
2022-11-12T02:37:43.051Z,71.42
2022-11-12T02:40:12.266Z,71.43
2022-11-12T02:42:39.869Z,71.57
2022-11-12T02:45:08.278Z,70.99
2022-11-12T02:47:35.926Z,70.54
2022-11-12T02:50:03.569Z,70.75
2022-11-12T02:52:32.282Z,70.14
2022-11-12T02:54:59.891Z,70.16
2022-11-12T02:57:29.793Z,70.72
2022-11-12T02:59:57.446Z,70.39
2022-11-12T03:02:25.193Z,69.51
2022-11-12T03:04:52.755Z,69.37
2022-11-12T03:07:20.405Z,69.63
2022-11-12T03:09:47.998Z,69.95
2022-11-12T03:12:15.664Z,70.16
2022-11-12T03:14:44.595Z,70.35
2022-11-12T03:17:12.207Z,70.35
2022-11-12T03:19:39.840Z,70.54
2022-11-12T03:22:07.448Z,70.84
2022-11-12T03:24:35.079Z,70.16
2022-11-12T03:27:02.663Z,70.41
2022-11-12T03:29:30.284Z,69.95
2022-11-12T03:31:59.215Z,69.56
2022-11-12T03:34:26.907Z,69.50
2022-11-12T03:36:54.473Z,69.45
2022-11-12T03:39:22.057Z,69.94
2022-11-12T03:41:49.609Z,70.58
2022-11-12T03:44:17.191Z,71.21
2022-11-12T03:46:44.761Z,70.65
2022-11-12T03:49:13.774Z,70.59
2022-11-12T03:51:41.379Z,70.49
2022-11-12T03:54:08.982Z,69.69
2022-11-12T03:56:36.653Z,70.04
2022-11-12T03:59:04.702Z,70.18
2022-11-12T04:01:32.685Z,69.89
2022-11-12T04:04:00.321Z,70.04
2022-11-12T04:06:47.118Z,69.99
2022-11-12T04:09:14.762Z,69.49
2022-11-12T04:11:42.370Z,66.87
2022-11-12T04:14:09.957Z,67.10
2022-11-12T04:16:55.307Z,67.47
2022-11-12T04:19:40.627Z,68.10
2022-11-12T04:22:11.868Z,69.42
2022-11-12T04:24:58.426Z,69.83
2022-11-12T04:27:27.910Z,69.92
2022-11-12T04:30:13.425Z,70.45
2022-11-12T04:32:46.358Z,69.77
2022-11-12T04:35:14.170Z,68.87
2022-11-12T04:37:46.177Z,69.02
2022-11-12T04:40:32.842Z,69.17
2022-11-12T04:43:29.593Z,69.19
2022-11-12T04:45:57.951Z,68.81
2022-11-12T04:48:26.598Z,69.48
2022-11-12T04:50:56.819Z,69.52
2022-11-12T04:53:26.306Z,70.20
2022-11-12T04:55:54.924Z,70.58
2022-11-12T04:58:22.980Z,71.51
2022-11-12T05:00:51.546Z,72.13
2022-11-12T05:03:19.539Z,72.39
2022-11-12T05:05:47.189Z,72.69
2022-11-12T05:08:14.770Z,72.78
2022-11-12T05:10:43.707Z,72.63
2022-11-12T05:13:11.336Z,70.88
2022-11-12T05:15:38.949Z,71.31
2022-11-12T05:18:06.606Z,72.29
2022-11-12T05:20:34.226Z,72.40
2022-11-12T05:23:08.939Z,72.59
2022-11-12T05:25:37.049Z,71.18
2022-11-12T05:28:07.189Z,70.08
2022-11-12T05:30:35.333Z,69.77
2022-11-12T05:33:02.917Z,69.90
2022-11-12T05:35:30.555Z,70.89
2022-11-12T05:37:58.128Z,71.22
2022-11-12T05:40:25.752Z,71.46
2022-11-12T05:42:53.392Z,70.06
2022-11-12T05:45:22.323Z,69.74
2022-11-12T05:47:49.864Z,69.39
2022-11-12T05:50:17.491Z,69.12
2022-11-12T05:52:45.059Z,69.32
2022-11-12T05:55:12.667Z,68.32
2022-11-12T05:57:40.284Z,67.83
2022-11-12T06:00:09.621Z,67.79
2022-11-12T06:02:38.654Z,68.13
2022-11-12T06:05:06.773Z,67.93
2022-11-12T06:07:34.390Z,67.76
2022-11-12T06:10:02.134Z,68.05
2022-11-12T06:12:29.777Z,68.07
2022-11-12T06:14:57.461Z,67.96
2022-11-12T06:17:25.236Z,68.66
2022-11-12T06:19:54.190Z,68.79
2022-11-12T06:22:21.806Z,69.54
2022-11-12T06:24:49.478Z,70.11
2022-11-12T06:27:17.025Z,70.74
2022-11-12T06:29:44.625Z,70.19
2022-11-12T06:32:12.268Z,70.97
2022-11-12T06:34:39.852Z,70.97
2022-11-12T06:37:08.773Z,69.88
2022-11-12T06:39:36.515Z,69.61
2022-11-12T06:42:04.439Z,70.68
2022-11-12T06:44:32.049Z,70.96
2022-11-12T06:46:59.637Z,71.29
2022-11-12T06:49:27.186Z,71.40
2022-11-12T06:51:54.872Z,71.65
2022-11-12T06:54:23.942Z,71.05
2022-11-12T06:56:51.552Z,71.02
2022-11-12T06:59:21.845Z,70.84
2022-11-12T07:01:49.541Z,70.58
2022-11-12T07:04:17.440Z,70.17
2022-11-12T07:06:45.052Z,69.51
2022-11-12T07:09:12.919Z,69.89
2022-11-12T07:11:41.920Z,70.02
2022-11-12T07:14:09.627Z,70.02
2022-11-12T07:16:37.345Z,70.08
2022-11-12T07:19:05.116Z,70.00
2022-11-12T07:21:32.763Z,70.35
2022-11-12T07:24:00.379Z,70.15
2022-11-12T07:26:28.532Z,69.77
2022-11-12T07:28:57.442Z,69.15
2022-11-12T07:31:26.830Z,69.94
2022-11-12T07:33:56.231Z,69.46
2022-11-12T07:36:23.843Z,69.08
2022-11-12T07:38:53.560Z,68.83
2022-11-12T07:41:22.808Z,69.41
2022-11-12T07:43:53.158Z,69.72
2022-11-12T07:46:24.444Z,69.77
2022-11-12T07:48:52.759Z,69.62
2022-11-12T07:51:22.288Z,69.77
2022-11-12T07:53:56.247Z,70.02
2022-11-12T07:56:27.945Z,69.46
2022-11-12T07:58:55.823Z,70.06
2022-11-12T08:01:29.976Z,69.63
2022-11-12T08:03:58.132Z,69.58
2022-11-12T08:06:26.590Z,69.38
2022-11-12T08:08:55.055Z,69.40
2022-11-12T08:11:22.985Z,69.71
2022-11-12T08:13:51.027Z,70.55
2022-11-12T08:16:19.064Z,70.91
2022-11-12T08:18:48.871Z,70.79
2022-11-12T08:21:17.929Z,71.47
2022-11-12T08:23:46.376Z,71.05
2022-11-12T08:26:16.242Z,70.61
2022-11-12T08:28:44.020Z,69.53
2022-11-12T08:31:13.711Z,69.97
2022-11-12T08:33:41.781Z,70.25
2022-11-12T08:36:15.426Z,70.40
2022-11-12T08:38:43.692Z,70.46
2022-11-12T08:41:13.310Z,70.60
2022-11-12T08:43:42.416Z,70.46
2022-11-12T08:46:10.135Z,71.24
2022-11-12T08:48:39.946Z,71.72
2022-11-12T08:51:08.307Z,72.02
2022-11-12T08:53:37.339Z,71.81
2022-11-12T08:56:05.633Z,71.19
2022-11-12T08:58:33.257Z,70.72
2022-11-12T09:01:06.302Z,70.85
2022-11-12T09:03:34.173Z,70.61
2022-11-12T09:06:06.275Z,70.20
2022-11-12T09:08:36.049Z,69.70
2022-11-12T09:11:05.354Z,69.58
2022-11-12T09:13:33.244Z,68.62
2022-11-12T09:16:05.380Z,68.73
2022-11-12T09:18:35.566Z,68.78
2022-11-12T09:21:05.402Z,69.00
2022-11-12T09:23:35.007Z,69.13
2022-11-12T09:26:02.768Z,68.57
2022-11-12T09:28:31.900Z,68.31
2022-11-12T09:31:01.585Z,68.57
2022-11-12T09:33:32.289Z,69.21
2022-11-12T09:36:02.314Z,69.47
2022-11-12T09:38:30.434Z,69.60
2022-11-12T09:41:18.843Z,69.60
2022-11-12T09:43:51.497Z,69.62
2022-11-12T09:46:29.484Z,69.85
2022-11-12T09:49:03.542Z,70.27
2022-11-12T09:51:35.154Z,70.30
2022-11-12T09:54:11.934Z,70.07
2022-11-12T09:56:39.617Z,70.66
2022-11-12T09:59:12.830Z,70.32
2022-11-12T10:01:50.099Z,70.23
2022-11-12T10:04:41.279Z,69.97
2022-11-12T10:07:16.659Z,69.63
2022-11-12T10:09:56.357Z,69.40
2022-11-12T10:12:32.743Z,69.59
2022-11-12T10:16:12.195Z,69.75
2022-11-12T10:18:51.878Z,69.35
2022-11-12T10:21:29.085Z,69.32
2022-11-12T10:23:58.555Z,69.48
2022-11-12T10:26:27.854Z,69.29
2022-11-12T10:29:09.094Z,69.31
2022-11-12T10:31:38.879Z,69.15
2022-11-12T10:34:16.891Z,69.06
2022-11-12T10:36:49.801Z,69.44
2022-11-12T10:39:35.370Z,69.52
2022-11-12T10:42:05.349Z,69.63
2022-11-12T10:44:32.976Z,69.95
2022-11-12T10:47:27.405Z,69.84
2022-11-12T10:50:14.896Z,69.58
2022-11-12T10:52:54.885Z,69.63
2022-11-12T10:55:25.638Z,69.46
2022-11-12T10:58:19.568Z,69.63
2022-11-12T11:01:00.054Z,69.17
2022-11-12T11:03:32.956Z,69.44
2022-11-12T11:06:03.360Z,70.02
2022-11-12T11:08:43.074Z,70.01
2022-11-12T11:11:24.748Z,70.40
2022-11-12T11:13:55.751Z,70.29
2022-11-12T11:16:26.809Z,69.95
2022-11-12T11:18:59.010Z,69.44
2022-11-12T11:21:59.052Z,70.13
2022-11-12T11:24:37.873Z,70.11
2022-11-12T11:27:15.587Z,70.15
2022-11-12T11:29:57.020Z,70.00
2022-11-12T11:32:39.169Z,70.08
2022-11-12T11:35:21.582Z,70.00
2022-11-12T11:38:03.386Z,70.10
2022-11-12T11:40:35.080Z,69.89
2022-11-12T11:43:18.946Z,70.18
2022-11-12T11:46:07.805Z,70.08
2022-11-12T11:48:50.659Z,70.31
2022-11-12T11:51:42.165Z,70.26
2022-11-12T11:54:26.740Z,70.63
2022-11-12T11:56:59.132Z,70.14
2022-11-12T11:59:37.572Z,70.33
2022-11-12T12:02:39.318Z,69.39
2022-11-12T12:05:23.386Z,69.70
2022-11-12T12:07:59.695Z,69.77
2022-11-12T12:11:06.378Z,69.97
2022-11-12T12:13:39.098Z,70.24
2022-11-12T12:16:26.635Z,70.47
2022-11-12T12:19:02.462Z,70.54
2022-11-12T12:21:34.202Z,69.93
2022-11-12T12:24:07.440Z,70.09
2022-11-12T12:26:41.066Z,69.99
2022-11-12T12:29:15.354Z,70.14
2022-11-12T12:31:51.803Z,70.13
2022-11-12T12:34:24.165Z,70.13
2022-11-12T12:36:57.196Z,70.11
2022-11-12T12:39:28.000Z,70.30
2022-11-12T12:42:00.212Z,70.37
2022-11-12T12:44:45.013Z,70.04
2022-11-12T12:47:15.146Z,70.09
2022-11-12T12:49:44.404Z,70.02
2022-11-12T12:52:14.270Z,70.02
2022-11-12T12:54:58.458Z,70.20
2022-11-12T12:57:35.859Z,70.34
2022-11-12T13:00:39.114Z,70.16
2022-11-12T13:03:07.147Z,70.32
2022-11-12T13:05:37.275Z,70.45
2022-11-12T13:08:09.838Z,70.36
2022-11-12T13:10:59.583Z,70.27
2022-11-12T13:13:32.411Z,70.05
2022-11-12T13:16:01.894Z,70.29
2022-11-12T13:19:02.009Z,69.89
2022-11-12T13:21:30.314Z,69.87
2022-11-12T13:24:10.799Z,70.23
2022-11-12T13:26:46.202Z,69.77
2022-11-12T13:29:22.950Z,69.61
2022-11-12T13:31:51.715Z,69.78
2022-11-12T13:34:22.684Z,70.18
2022-11-12T13:36:59.314Z,70.61
2022-11-12T13:39:26.945Z,70.59
2022-11-12T13:42:17.639Z,70.84
2022-11-12T13:44:45.991Z,70.64
2022-11-12T13:47:17.397Z,70.91
2022-11-12T13:49:47.334Z,70.69
2022-11-12T13:52:16.148Z,70.67
2022-11-12T13:54:43.729Z,70.86
2022-11-12T13:57:24.845Z,71.04
2022-11-12T14:00:20.696Z,71.22
2022-11-12T14:02:53.133Z,71.05
2022-11-12T14:05:23.655Z,71.12
2022-11-12T14:08:03.039Z,70.62
2022-11-12T14:10:42.154Z,71.01
2022-11-12T14:13:40.037Z,71.10
2022-11-12T14:16:21.465Z,70.93
2022-11-12T14:19:08.388Z,71.50
2022-11-12T14:21:36.061Z,71.33
2022-11-12T14:24:05.360Z,71.57
2022-11-12T14:26:38.175Z,71.63
2022-11-12T14:29:07.384Z,71.34
2022-11-12T14:31:34.995Z,71.62
2022-11-12T14:34:21.984Z,71.85
2022-11-12T14:36:50.629Z,72.06
2022-11-12T14:39:18.205Z,72.06
2022-11-12T14:41:49.103Z,72.46
2022-11-12T14:44:23.287Z,72.51
2022-11-12T14:46:53.711Z,72.50
2022-11-12T14:49:28.399Z,72.69
2022-11-12T14:52:04.133Z,72.99
2022-11-12T14:54:35.558Z,72.96
2022-11-12T14:57:05.740Z,73.25
2022-11-12T14:59:34.962Z,73.15
2022-11-12T15:05:01.303Z,73.31
2022-11-12T15:07:32.209Z,73.84
2022-11-12T15:10:00.485Z,73.79
2022-11-12T15:12:32.146Z,74.35
2022-11-12T15:15:11.250Z,74.53
2022-11-12T15:17:39.330Z,74.54
2022-11-12T15:20:14.905Z,74.79
2022-11-12T15:22:49.485Z,75.05
2022-11-12T15:25:25.476Z,75.34
2022-11-12T15:27:53.331Z,75.58
2022-11-12T15:30:25.321Z,75.50
2022-11-12T15:33:09.135Z,75.81
2022-11-12T15:35:39.310Z,76.27
2022-11-12T15:38:13.078Z,76.27
2022-11-12T15:40:47.160Z,76.07
2022-11-12T15:43:19.718Z,76.38
2022-11-12T15:45:53.829Z,76.74
2022-11-12T15:48:21.700Z,77.04
2022-11-12T15:50:49.565Z,76.82
2022-11-12T15:53:17.225Z,76.62
2022-11-12T15:55:46.144Z,76.87
2022-11-12T15:58:19.423Z,76.99
2022-11-12T16:00:47.719Z,77.33
2022-11-12T16:03:19.325Z,77.41
2022-11-12T16:05:48.406Z,77.19
2022-11-12T16:08:16.212Z,77.38
2022-11-12T16:10:46.072Z,77.62
2022-11-12T16:13:20.108Z,77.68
2022-11-12T16:15:51.090Z,77.81
2022-11-12T16:18:20.055Z,77.72
2022-11-12T16:20:48.548Z,77.52
2022-11-12T16:23:16.185Z,77.68
2022-11-12T16:25:44.974Z,77.68
2022-11-12T16:28:15.522Z,77.70
2022-11-12T16:30:44.875Z,77.97
2022-11-12T16:33:13.643Z,78.19
2022-11-12T16:35:42.899Z,76.96
2022-11-12T16:38:14.722Z,75.98
2022-11-12T16:40:43.010Z,75.66
2022-11-12T16:43:10.669Z,76.41
2022-11-12T16:45:40.510Z,76.97
2022-11-12T16:48:15.307Z,75.81
2022-11-12T16:50:44.285Z,76.66
2022-11-12T16:53:11.859Z,77.61
2022-11-12T16:55:39.489Z,78.17
2022-11-12T16:58:08.191Z,78.39
2022-11-12T17:00:35.929Z,78.67
2022-11-12T17:03:03.889Z,78.96
2022-11-12T17:05:31.498Z,78.91
2022-11-12T17:08:00.474Z,78.42
2022-11-12T17:10:28.128Z,78.91
2022-11-12T17:12:55.994Z,79.21
2022-11-12T17:15:23.642Z,78.23
2022-11-12T17:17:54.274Z,77.18
2022-11-12T17:20:21.915Z,77.97
2022-11-12T17:22:49.678Z,77.95
2022-11-12T17:25:18.709Z,78.36
2022-11-12T17:27:46.265Z,78.67
2022-11-12T17:30:14.484Z,78.94
2022-11-12T17:32:42.125Z,79.03
2022-11-12T17:35:09.781Z,79.02
2022-11-12T17:37:37.388Z,78.96
2022-11-12T17:40:06.511Z,79.46
2022-11-12T17:42:36.788Z,79.77
2022-11-12T17:45:04.576Z,79.62
2022-11-12T17:47:34.618Z,79.66
2022-11-12T17:50:06.517Z,79.73
2022-11-12T17:52:34.157Z,79.91
2022-11-12T17:55:01.749Z,80.30
2022-11-12T17:57:29.333Z,80.11
2022-11-12T17:59:58.548Z,79.99
2022-11-12T18:02:26.396Z,80.03
2022-11-12T18:04:54.118Z,79.85
2022-11-12T18:07:21.833Z,79.78
2022-11-12T18:09:49.469Z,79.79
2022-11-12T18:12:17.024Z,80.00
2022-11-12T18:14:44.652Z,80.16
2022-11-12T18:17:14.468Z,80.29
2022-11-12T18:19:42.018Z,80.33
2022-11-12T18:22:12.272Z,80.18
2022-11-12T18:24:39.834Z,80.07
2022-11-12T18:27:07.558Z,80.02
2022-11-12T18:29:35.970Z,80.21
2022-11-12T18:32:03.566Z,80.31
2022-11-12T18:34:32.521Z,80.04
2022-11-12T18:37:00.335Z,80.26
2022-11-12T18:39:28.552Z,79.94
2022-11-12T18:41:56.127Z,79.97
2022-11-12T18:44:26.112Z,80.18
2022-11-12T18:46:53.945Z,80.39
2022-11-12T18:49:21.561Z,80.51
2022-11-12T18:51:50.555Z,80.45
2022-11-12T18:54:18.142Z,80.61
2022-11-12T18:56:45.723Z,80.86
2022-11-12T18:59:13.337Z,80.60
2022-11-12T19:01:40.989Z,80.61
2022-11-12T19:04:12.064Z,80.30
2022-11-12T19:06:39.734Z,80.06
2022-11-12T19:09:11.388Z,79.25
2022-11-12T19:11:39.027Z,79.07
2022-11-12T19:14:06.634Z,79.20
2022-11-12T19:16:34.250Z,79.10
2022-11-12T19:19:01.883Z,79.26
2022-11-12T19:21:29.470Z,79.62
2022-11-12T19:23:57.577Z,79.72
2022-11-12T19:26:26.644Z,79.55
2022-11-12T19:28:55.138Z,79.48
2022-11-12T19:31:24.330Z,79.41
2022-11-12T19:33:54.197Z,79.44
2022-11-12T19:36:26.591Z,79.82
2022-11-12T19:38:57.556Z,79.30
2022-11-12T19:41:27.161Z,79.23
2022-11-12T19:43:54.944Z,78.77
2022-11-12T19:46:22.549Z,78.35
2022-11-12T19:48:53.846Z,78.13
2022-11-12T19:51:21.475Z,77.59
2022-11-12T19:53:49.216Z,77.54
2022-11-12T19:56:18.800Z,77.46
2022-11-12T19:58:48.882Z,78.08
2022-11-12T20:01:18.520Z,78.18
2022-11-12T20:03:46.753Z,78.21
2022-11-12T20:06:19.891Z,78.99
2022-11-12T20:08:48.078Z,79.05
2022-11-12T20:11:18.624Z,78.29
2022-11-12T20:13:47.803Z,77.92
2022-11-12T20:16:22.234Z,77.18
2022-11-12T20:18:54.249Z,76.79
2022-11-12T20:21:21.921Z,77.28
2022-11-12T20:23:49.557Z,78.20
2022-11-12T20:26:17.331Z,78.54
2022-11-12T20:28:45.101Z,78.85
2022-11-12T20:31:15.874Z,79.06
2022-11-12T20:33:43.604Z,79.40
2022-11-12T20:36:12.903Z,79.54
2022-11-12T20:38:41.660Z,79.38
2022-11-12T20:41:14.372Z,79.63
2022-11-12T20:43:42.303Z,79.55
2022-11-12T20:46:12.050Z,79.72
2022-11-12T20:48:43.476Z,79.53
2022-11-12T20:51:28.975Z,79.78
2022-11-12T20:54:00.262Z,79.83
2022-11-12T20:56:30.039Z,79.89
2022-11-12T20:58:58.109Z,80.14
2022-11-12T21:01:28.140Z,80.02
2022-11-12T21:03:58.145Z,80.03
2022-11-12T21:06:28.340Z,79.96
2022-11-12T21:08:59.011Z,78.57
2022-11-12T21:11:28.111Z,78.60
2022-11-12T21:13:55.730Z,79.00
2022-11-12T21:16:23.292Z,79.25
2022-11-12T21:18:50.903Z,79.27
2022-11-12T21:21:21.175Z,78.77
2022-11-12T21:23:50.327Z,78.36
2022-11-12T21:26:19.895Z,78.74
2022-11-12T21:28:49.209Z,78.97
2022-11-12T21:31:19.439Z,76.57
2022-11-12T21:33:50.358Z,75.92
2022-11-12T21:36:18.146Z,75.14
2022-11-12T21:38:47.572Z,75.36
2022-11-12T21:41:17.069Z,76.29
2022-11-12T21:43:45.664Z,76.90
2022-11-12T21:46:15.481Z,77.30
2022-11-12T21:48:43.580Z,77.73
2022-11-12T21:51:13.139Z,77.93
2022-11-12T21:53:41.473Z,77.49
2022-11-12T21:56:13.696Z,77.07
2022-11-12T21:58:41.603Z,75.93
2022-11-12T22:01:11.097Z,75.15
2022-11-12T22:03:39.417Z,75.46
2022-11-12T22:06:08.165Z,75.33
2022-11-12T22:08:35.808Z,75.26
2022-11-12T22:11:04.796Z,76.16
2022-11-12T22:13:34.360Z,76.89
2022-11-12T22:16:05.946Z,77.53
2022-11-12T22:18:34.175Z,78.22
2022-11-12T22:21:03.601Z,78.21
2022-11-12T22:23:32.916Z,78.55
2022-11-12T22:26:00.749Z,78.65
2022-11-12T22:28:28.839Z,78.76
2022-11-12T22:31:04.022Z,77.55
2022-11-12T22:33:31.642Z,76.86
2022-11-12T22:36:02.336Z,76.02
2022-11-12T22:38:34.207Z,75.43
2022-11-12T22:41:03.005Z,74.68
2022-11-12T22:43:30.593Z,74.50
2022-11-12T22:46:04.286Z,75.40
2022-11-12T22:48:31.852Z,75.70
2022-11-12T22:51:00.754Z,76.06
2022-11-12T22:53:29.203Z,76.30
2022-11-12T22:55:56.978Z,76.91
2022-11-12T22:58:24.708Z,77.34
2022-11-12T23:00:52.939Z,77.20
2022-11-12T23:03:21.946Z,77.42
2022-11-12T23:05:49.501Z,77.44
2022-11-12T23:08:17.072Z,77.70
2022-11-12T23:10:46.073Z,76.14
2022-11-12T23:13:13.767Z,75.12
2022-11-12T23:15:43.691Z,75.23
2022-11-12T23:18:11.281Z,73.46
2022-11-12T23:20:40.524Z,73.06
2022-11-12T23:23:08.160Z,72.70
2022-11-12T23:25:36.899Z,72.08
2022-11-12T23:28:07.658Z,72.05
2022-11-12T23:30:35.403Z,73.10
2022-11-12T23:33:03.338Z,73.50
2022-11-12T23:35:31.560Z,74.53
2022-11-12T23:38:00.512Z,74.63
2022-11-12T23:40:31.205Z,74.05
2022-11-12T23:42:58.961Z,74.51
2022-11-12T23:45:26.596Z,74.60
2022-11-12T23:47:55.803Z,75.31
2022-11-12T23:50:23.471Z,75.94
2022-11-12T23:52:51.087Z,76.44
2022-11-12T23:55:20.110Z,76.30
2022-11-12T23:57:47.696Z,76.53
